Time;durP1;ratioP1;P1;durP2;ratioP2;P2;SDS_P1;SDS_P2;PMS_P1;PMS_P2;Temp;Humidity;BMP_temperature;BMP_pressure;BME280_temperature;BME280_humidity;BME280_pressure;Samples;Min_cycle;Max_cycle;Signal;HPM_P1;HPM_P2
2023/08/10 00:01:30;;;;;;;7.50;3.87;;;;;;;;;;5129437;27;20474;-69
2023/08/10 00:03:56;;;;;;;7.33;2.87;;;;;;;;;;5139687;27;20519;-68
2023/08/10 00:06:23;;;;;;;3.50;2.50;;;;;;;;;;5146463;27;20451;-68
2023/08/10 00:08:50;;;;;;;3.50;2.93;;;;;;;;;;5123084;27;20458;-69
2023/08/10 00:11:16;;;;;;;5.00;2.50;;;;;;;;;;5132580;27;20453;-69
2023/08/10 00:13:42;;;;;;;4.90;2.60;;;;;;;;;;5130817;27;20565;-68
2023/08/10 00:16:10;;;;;;;4.37;2.67;;;;;;;;;;5136458;27;20461;-67
2023/08/10 00:18:36;;;;;;;5.60;2.60;;;;;;;;;;5129814;27;20465;-69
2023/08/10 00:21:04;;;;;;;8.47;3.70;;;;;;;;;;5134533;27;20488;-67
2023/08/10 00:23:30;;;;;;;7.40;2.73;;;;;;;;;;5137541;27;20494;-68
2023/08/10 00:25:57;;;;;;;5.63;2.93;;;;;;;;;;5115334;27;21075;-68
2023/08/10 00:28:24;;;;;;;5.00;2.93;;;;;;;;;;5146251;27;20522;-67
2023/08/10 00:30:50;;;;;;;5.33;2.60;;;;;;;;;;5128290;27;20531;-67
2023/08/10 00:33:18;;;;;;;7.53;3.40;;;;;;;;;;5138077;27;20508;-66
2023/08/10 00:35:44;;;;;;;4.07;2.97;;;;;;;;;;5135711;27;20670;-68
2023/08/10 00:38:10;;;;;;;4.07;2.97;;;;;;;;;;5136804;27;20519;-68
2023/08/10 00:40:37;;;;;;;5.80;3.00;;;;;;;;;;5131226;27;20477;-68
2023/08/10 00:43:05;;;;;;;5.40;3.53;;;;;;;;;;5130557;27;20540;-68
2023/08/10 00:45:32;;;;;;;6.23;3.60;;;;;;;;;;5128896;27;20538;-67
2023/08/10 00:47:58;;;;;;;5.73;2.80;;;;;;;;;;5127406;27;21391;-69
2023/08/10 00:50:26;;;;;;;4.70;2.90;;;;;;;;;;5125620;27;20548;-69
2023/08/10 00:52:52;;;;;;;5.87;3.30;;;;;;;;;;5135689;27;20496;-70
2023/08/10 00:55:19;;;;;;;10.17;3.30;;;;;;;;;;5131693;27;20677;-69
2023/08/10 00:57:45;;;;;;;4.77;3.10;;;;;;;;;;5128118;27;20457;-69
2023/08/10 01:00:14;;;;;;;4.90;2.97;;;;;;;;;;5131100;27;21285;-69
2023/08/10 01:02:40;;;;;;;5.27;3.30;;;;;;;;;;5118385;27;20541;-68
2023/08/10 01:05:07;;;;;;;4.13;3.07;;;;;;;;;;5136762;27;20540;-69
2023/08/10 01:07:38;;;;;;;6.50;3.83;;;;;;;;;;5136046;27;20613;-68
2023/08/10 01:10:07;;;;;;;6.07;3.30;;;;;;;;;;5139057;27;20464;-68
2023/08/10 01:12:37;;;;;;;4.50;3.17;;;;;;;;;;5136655;27;20455;-69
2023/08/10 01:15:07;;;;;;;6.97;3.40;;;;;;;;;;5141132;27;20488;-69
2023/08/10 01:17:37;;;;;;;5.70;3.00;;;;;;;;;;5125289;27;20465;-69
2023/08/10 01:20:04;;;;;;;6.17;3.53;;;;;;;;;;5140743;27;20455;-69
2023/08/10 01:22:38;;;;;;;7.47;3.07;;;;;;;;;;5131279;27;20465;-70
2023/08/10 01:25:07;;;;;;;6.27;2.93;;;;;;;;;;5131223;27;20447;-69
2023/08/10 01:27:34;;;;;;;5.67;3.83;;;;;;;;;;5136705;27;20457;-70
2023/08/10 01:30:01;;;;;;;3.90;2.70;;;;;;;;;;5131994;27;20454;-69
2023/08/10 01:32:27;;;;;;;6.67;2.90;;;;;;;;;;5131039;27;20461;-69
2023/08/10 01:34:56;;;;;;;6.33;2.97;;;;;;;;;;5135617;27;20477;-70
2023/08/10 01:37:22;;;;;;;4.57;3.20;;;;;;;;;;5133033;27;20521;-70
2023/08/10 01:39:48;;;;;;;8.00;3.50;;;;;;;;;;5138462;27;20902;-69
2023/08/10 01:42:16;;;;;;;4.10;3.27;;;;;;;;;;5136602;27;20553;-69
2023/08/10 01:44:43;;;;;;;6.97;3.50;;;;;;;;;;5142343;27;20656;-69
2023/08/10 01:47:15;;;;;;;14.73;3.63;;;;;;;;;;5126542;27;20515;-68
2023/08/10 01:49:43;;;;;;;5.17;3.00;;;;;;;;;;5134172;27;20485;-67
2023/08/10 01:52:11;;;;;;;5.63;3.40;;;;;;;;;;5131427;27;20460;-69
2023/08/10 01:54:38;;;;;;;3.90;2.97;;;;;;;;;;5134880;27;20524;-69
2023/08/10 01:57:05;;;;;;;5.13;3.47;;;;;;;;;;5132659;27;20509;-68
2023/08/10 01:59:33;;;;;;;5.00;3.20;;;;;;;;;;5139880;27;20479;-69
2023/08/10 02:01:59;;;;;;;5.73;3.23;;;;;;;;;;5133171;27;20475;-67
2023/08/10 02:04:26;;;;;;;4.53;3.20;;;;;;;;;;5130553;27;20445;-69
2023/08/10 02:06:53;;;;;;;6.87;4.70;;;;;;;;;;5125479;27;20514;-68
2023/08/10 02:09:19;;;;;;;6.80;2.87;;;;;;;;;;5129497;27;20438;-67
2023/08/10 02:11:46;;;;;;;5.77;2.90;;;;;;;;;;5129361;27;21054;-66
2023/08/10 02:14:12;;;;;;;6.40;3.20;;;;;;;;;;5125846;27;20536;-68
2023/08/10 02:16:40;;;;;;;4.70;2.70;;;;;;;;;;5136535;27;20478;-68
2023/08/10 02:19:06;;;;;;;6.47;2.70;;;;;;;;;;5135755;27;20489;-69
2023/08/10 02:21:32;;;;;;;5.90;3.60;;;;;;;;;;5134673;27;20477;-69
2023/08/10 02:23:59;;;;;;;8.87;3.23;;;;;;;;;;5136281;27;20826;-68
2023/08/10 02:26:25;;;;;;;4.40;3.83;;;;;;;;;;5125534;27;20446;-68
2023/08/10 02:28:52;;;;;;;7.60;2.90;;;;;;;;;;5130662;27;20459;-67
2023/08/10 02:31:18;;;;;;;8.00;2.77;;;;;;;;;;5132456;27;20476;-68
2023/08/10 02:33:46;;;;;;;4.37;3.10;;;;;;;;;;5123832;27;20485;-68
2023/08/10 02:36:12;;;;;;;4.10;3.00;;;;;;;;;;5119510;27;20521;-68
2023/08/10 02:38:38;;;;;;;7.00;2.60;;;;;;;;;;5125104;27;20488;-68
2023/08/10 02:41:05;;;;;;;3.63;2.27;;;;;;;;;;5130624;27;20560;-67
2023/08/10 02:43:31;;;;;;;8.87;3.43;;;;;;;;;;5123760;27;20456;-68
2023/08/10 02:45:58;;;;;;;5.10;2.40;;;;;;;;;;5131400;27;20843;-67
2023/08/10 02:48:24;;;;;;;5.17;3.20;;;;;;;;;;5119105;27;20460;-69
2023/08/10 02:50:52;;;;;;;7.30;3.57;;;;;;;;;;5121753;27;20516;-69
2023/08/10 02:53:18;;;;;;;5.47;2.60;;;;;;;;;;5139911;27;20486;-67
2023/08/10 02:55:45;;;;;;;3.33;2.60;;;;;;;;;;5131091;27;20572;-68
2023/08/10 02:58:11;;;;;;;6.53;3.07;;;;;;;;;;5140789;28;20480;-68
2023/08/10 03:00:38;;;;;;;4.00;2.80;;;;;;;;;;5148074;27;20484;-69
2023/08/10 03:03:05;;;;;;;4.33;3.07;;;;;;;;;;5126906;27;20476;-68
2023/08/10 03:05:31;;;;;;;5.93;2.90;;;;;;;;;;5133963;28;20488;-67
2023/08/10 03:07:59;;;;;;;9.60;3.20;;;;;;;;;;5131980;28;20456;-67
2023/08/10 03:10:26;;;;;;;4.40;2.90;;;;;;;;;;5121075;28;20459;-69
2023/08/10 03:12:52;;;;;;;6.60;2.80;;;;;;;;;;5125426;28;20487;-67
2023/08/10 03:15:19;;;;;;;5.37;3.23;;;;;;;;;;5127626;28;20569;-68
2023/08/10 03:17:45;;;;;;;3.40;2.23;;;;;;;;;;5130493;28;20453;-68
2023/08/10 03:20:16;;;;;;;10.60;2.77;;;;;;;;;;5119873;28;20464;-68
2023/08/10 03:22:43;;;;;;;4.90;3.23;;;;;;;;;;5137537;27;20496;-68
2023/08/10 03:25:11;;;;;;;5.33;2.87;;;;;;;;;;5136085;27;20477;-68
2023/08/10 03:27:37;;;;;;;4.60;2.60;;;;;;;;;;5121407;28;20530;-69
2023/08/10 03:30:04;;;;;;;4.87;2.90;;;;;;;;;;5136341;27;20513;-69
2023/08/10 03:32:31;;;;;;;5.43;3.03;;;;;;;;;;5134499;27;20976;-68
2023/08/10 03:34:57;;;;;;;8.17;2.63;;;;;;;;;;5133548;27;21146;-69
2023/08/10 03:37:23;;;;;;;4.83;2.70;;;;;;;;;;5136778;27;20469;-69
2023/08/10 03:39:50;;;;;;;7.50;2.90;;;;;;;;;;5129017;27;20575;-68
2023/08/10 03:42:18;;;;;;;5.13;2.47;;;;;;;;;;5136643;27;20477;-67
2023/08/10 03:44:44;;;;;;;9.13;3.37;;;;;;;;;;5134879;27;20480;-68
2023/08/10 03:47:10;;;;;;;5.70;3.30;;;;;;;;;;5137136;27;20552;-68
2023/08/10 03:49:37;;;;;;;11.20;3.73;;;;;;;;;;5137821;27;20549;-68
2023/08/10 03:52:03;;;;;;;4.20;2.43;;;;;;;;;;5140185;27;20525;-62
2023/08/10 03:54:31;;;;;;;6.80;2.80;;;;;;;;;;5129528;27;20520;-62
2023/08/10 03:56:57;;;;;;;5.43;3.30;;;;;;;;;;5140628;27;20457;-62
2023/08/10 03:59:25;;;;;;;4.30;2.80;;;;;;;;;;5132187;27;20484;-62
2023/08/10 04:01:51;;;;;;;4.30;2.87;;;;;;;;;;5135200;27;20453;-62
2023/08/10 04:04:18;;;;;;;3.90;2.60;;;;;;;;;;5138350;27;20532;-62
2023/08/10 04:06:44;;;;;;;4.23;2.40;;;;;;;;;;5137784;27;20449;-62
2023/08/10 04:09:10;;;;;;;4.43;2.90;;;;;;;;;;5129085;27;20508;-62
2023/08/10 04:11:37;;;;;;;5.43;3.30;;;;;;;;;;5135687;27;20453;-63
2023/08/10 04:14:03;;;;;;;3.90;3.03;;;;;;;;;;5142076;27;20456;-62
2023/08/10 04:16:31;;;;;;;9.10;2.73;;;;;;;;;;5136391;27;20485;-62
2023/08/10 04:18:57;;;;;;;5.03;3.47;;;;;;;;;;5136403;27;20534;-62
2023/08/10 04:21:24;;;;;;;6.80;3.00;;;;;;;;;;5133549;27;20477;-62
2023/08/10 04:23:51;;;;;;;4.30;2.60;;;;;;;;;;5128529;27;20449;-62
2023/08/10 04:26:17;;;;;;;7.07;3.47;;;;;;;;;;5129287;27;20437;-63
2023/08/10 04:28:44;;;;;;;4.70;2.80;;;;;;;;;;5131035;27;20465;-62
2023/08/10 04:31:10;;;;;;;4.63;3.27;;;;;;;;;;5131156;27;20508;-62
2023/08/10 04:33:38;;;;;;;7.60;2.57;;;;;;;;;;5129329;27;20500;-62
2023/08/10 04:36:05;;;;;;;5.53;2.87;;;;;;;;;;5123159;27;20493;-64
2023/08/10 04:38:31;;;;;;;2.83;2.20;;;;;;;;;;5124849;27;20473;-64
2023/08/10 04:40:57;;;;;;;3.47;2.57;;;;;;;;;;5133369;27;20461;-65
2023/08/10 04:43:24;;;;;;;2.40;2.10;;;;;;;;;;5122007;27;20538;-65
2023/08/10 04:45:50;;;;;;;4.97;3.47;;;;;;;;;;5134029;27;20932;-65
2023/08/10 04:48:17;;;;;;;3.40;2.33;;;;;;;;;;5128796;27;20471;-65
2023/08/10 04:50:44;;;;;;;2.70;2.20;;;;;;;;;;5126875;27;20564;-65
2023/08/10 04:53:11;;;;;;;6.23;2.10;;;;;;;;;;5132621;27;20511;-65
2023/08/10 04:55:37;;;;;;;3.43;2.00;;;;;;;;;;5132754;27;20864;-65
2023/08/10 04:58:04;;;;;;;8.20;3.60;;;;;;;;;;5129244;27;20516;-66
2023/08/10 05:00:30;;;;;;;2.83;2.10;;;;;;;;;;5132302;27;20497;-66
2023/08/10 05:02:56;;;;;;;4.90;2.67;;;;;;;;;;5139379;27;20564;-66
2023/08/10 05:05:23;;;;;;;5.60;3.37;;;;;;;;;;5139242;27;20979;-65
2023/08/10 05:07:51;;;;;;;5.73;3.03;;;;;;;;;;5134358;27;20453;-65
2023/08/10 05:10:17;;;;;;;3.93;2.60;;;;;;;;;;5129355;27;20513;-65
2023/08/10 05:12:43;;;;;;;5.40;2.73;;;;;;;;;;5123992;27;20541;-66
2023/08/10 05:15:11;;;;;;;3.90;3.17;;;;;;;;;;5125638;27;20474;-64
2023/08/10 05:17:38;;;;;;;5.43;3.20;;;;;;;;;;5136992;27;20449;-65
2023/08/10 05:20:10;;;;;;;4.90;2.83;;;;;;;;;;5131948;27;20441;-65
2023/08/10 05:22:36;;;;;;;8.50;2.83;;;;;;;;;;5126158;27;20482;-65
2023/08/10 05:25:05;;;;;;;3.83;3.03;;;;;;;;;;5130880;27;20453;-65
2023/08/10 05:27:32;;;;;;;2.87;2.00;;;;;;;;;;5127297;27;21062;-65
2023/08/10 05:29:58;;;;;;;4.63;2.20;;;;;;;;;;5130704;27;21036;-64
2023/08/10 05:32:25;;;;;;;4.10;3.03;;;;;;;;;;5131126;27;20515;-66
2023/08/10 05:34:51;;;;;;;4.40;2.77;;;;;;;;;;5130175;27;20913;-66
2023/08/10 05:37:18;;;;;;;6.20;2.63;;;;;;;;;;5129639;27;20548;-65
2023/08/10 05:39:44;;;;;;;5.37;2.83;;;;;;;;;;5131459;27;20450;-65
2023/08/10 05:42:12;;;;;;;4.23;2.57;;;;;;;;;;5131270;27;20449;-65
2023/08/10 05:44:38;;;;;;;3.40;2.43;;;;;;;;;;5131160;27;20488;-66
2023/08/10 05:47:05;;;;;;;4.13;2.20;;;;;;;;;;5140445;27;20528;-67
2023/08/10 05:49:31;;;;;;;4.70;2.93;;;;;;;;;;5128893;27;20482;-67
2023/08/10 05:51:57;;;;;;;6.47;2.67;;;;;;;;;;5132560;27;20553;-66
2023/08/10 05:54:24;;;;;;;7.00;2.90;;;;;;;;;;5134828;27;20499;-66
2023/08/10 05:56:50;;;;;;;5.27;2.40;;;;;;;;;;5129679;27;20481;-67
2023/08/10 05:59:18;;;;;;;4.70;2.63;;;;;;;;;;5129804;27;20522;-67
2023/08/10 06:01:45;;;;;;;4.10;2.90;;;;;;;;;;5134148;27;20481;-66
2023/08/10 06:04:12;;;;;;;4.37;2.47;;;;;;;;;;5134697;27;20454;-66
2023/08/10 06:06:38;;;;;;;3.63;2.67;;;;;;;;;;5128120;27;20482;-67
2023/08/10 06:09:05;;;;;;;4.97;2.70;;;;;;;;;;5128751;27;20462;-66
2023/08/10 06:11:31;;;;;;;6.60;3.00;;;;;;;;;;5127540;27;20556;-66
2023/08/10 06:13:58;;;;;;;6.80;2.77;;;;;;;;;;5125393;27;20481;-66
2023/08/10 06:16:25;;;;;;;5.07;2.80;;;;;;;;;;5128022;27;20479;-66
2023/08/10 06:18:52;;;;;;;5.60;2.50;;;;;;;;;;5126403;27;20512;-66
2023/08/10 06:21:19;;;;;;;5.47;2.57;;;;;;;;;;5132227;27;20445;-67
2023/08/10 06:23:45;;;;;;;4.30;2.10;;;;;;;;;;5131512;27;20445;-67
2023/08/10 06:26:12;;;;;;;5.23;2.30;;;;;;;;;;5131079;27;20548;-66
2023/08/10 06:28:39;;;;;;;4.60;2.10;;;;;;;;;;5136351;27;20548;-67
2023/08/10 06:31:08;;;;;;;6.77;2.27;;;;;;;;;;5134542;27;20509;-67
2023/08/10 06:33:36;;;;;;;4.30;1.90;;;;;;;;;;5134784;27;20968;-66
2023/08/10 06:36:03;;;;;;;4.90;2.10;;;;;;;;;;5128364;27;20512;-65
2023/08/10 06:38:30;;;;;;;5.20;2.00;;;;;;;;;;5128660;27;20530;-68
2023/08/10 06:40:56;;;;;;;4.20;1.63;;;;;;;;;;5125360;27;20454;-67
2023/08/10 06:43:23;;;;;;;6.50;2.43;;;;;;;;;;5127818;27;20452;-67
2023/08/10 06:45:49;;;;;;;3.73;1.80;;;;;;;;;;5127019;27;20594;-67
2023/08/10 06:48:15;;;;;;;3.93;1.87;;;;;;;;;;5134074;27;20480;-66
2023/08/10 06:50:43;;;;;;;4.90;2.47;;;;;;;;;;5134467;27;20569;-68
2023/08/10 06:53:11;;;;;;;4.30;1.87;;;;;;;;;;5128946;27;20643;-68
2023/08/10 06:55:38;;;;;;;4.00;2.20;;;;;;;;;;5134357;28;20631;-68
2023/08/10 06:58:05;;;;;;;7.57;2.17;;;;;;;;;;5131193;28;20453;-68
2023/08/10 07:00:31;;;;;;;4.03;2.13;;;;;;;;;;5123509;27;20458;-68
2023/08/10 07:02:59;;;;;;;5.80;1.77;;;;;;;;;;5130814;28;20685;-68
2023/08/10 07:05:26;;;;;;;6.17;1.60;;;;;;;;;;5128426;27;20434;-68
2023/08/10 07:07:54;;;;;;;4.50;1.87;;;;;;;;;;5142872;27;20867;-67
2023/08/10 07:10:20;;;;;;;3.30;1.90;;;;;;;;;;5139530;27;20465;-67
2023/08/10 07:12:47;;;;;;;5.13;2.03;;;;;;;;;;5135548;27;20464;-67
2023/08/10 07:15:13;;;;;;;4.60;1.73;;;;;;;;;;5128375;27;20477;-67
2023/08/10 07:17:40;;;;;;;7.50;2.10;;;;;;;;;;5123685;27;20460;-67
2023/08/10 07:20:08;;;;;;;4.20;1.70;;;;;;;;;;5135292;27;20474;-68
2023/08/10 07:22:35;;;;;;;6.90;2.30;;;;;;;;;;5136436;27;20461;-68
2023/08/10 07:25:05;;;;;;;6.27;1.90;;;;;;;;;;5134241;27;20521;-68
2023/08/10 07:27:32;;;;;;;4.77;2.30;;;;;;;;;;5132403;27;20454;-67
2023/08/10 07:29:58;;;;;;;5.10;2.30;;;;;;;;;;5129330;27;20483;-66
2023/08/10 07:32:24;;;;;;;5.87;2.20;;;;;;;;;;5144463;27;21037;-67
2023/08/10 07:34:51;;;;;;;6.80;2.10;;;;;;;;;;5143220;27;20495;-67
2023/08/10 07:37:17;;;;;;;8.07;2.30;;;;;;;;;;5134432;27;20514;-67
2023/08/10 07:39:44;;;;;;;3.97;1.90;;;;;;;;;;5140330;27;20471;-66
2023/08/10 07:42:13;;;;;;;5.60;2.23;;;;;;;;;;5128109;27;20475;-67
2023/08/10 07:44:39;;;;;;;5.17;2.13;;;;;;;;;;5141932;27;20441;-67
2023/08/10 07:47:05;;;;;;;4.03;1.70;;;;;;;;;;5139301;27;20437;-67
2023/08/10 07:49:32;;;;;;;7.43;2.53;;;;;;;;;;5134065;27;20521;-66
2023/08/10 07:51:58;;;;;;;4.30;2.20;;;;;;;;;;5133406;27;20511;-66
2023/08/10 07:54:25;;;;;;;3.63;2.17;;;;;;;;;;5125603;27;20521;-66
2023/08/10 07:56:52;;;;;;;5.20;2.43;;;;;;;;;;5133824;27;20488;-67
2023/08/10 07:59:20;;;;;;;4.30;1.50;;;;;;;;;;5137194;27;20492;-68
2023/08/10 08:01:46;;;;;;;3.10;1.40;;;;;;;;;;5132730;27;20474;-69
2023/08/10 08:04:13;;;;;;;5.10;1.70;;;;;;;;;;5131316;27;20452;-68
2023/08/10 08:06:40;;;;;;;3.90;1.60;;;;;;;;;;5132560;27;20508;-67
2023/08/10 08:09:07;;;;;;;4.73;1.77;;;;;;;;;;5137321;27;20457;-68
2023/08/10 08:11:34;;;;;;;7.30;1.83;;;;;;;;;;5144109;27;20526;-68
2023/08/10 08:14:01;;;;;;;5.87;2.20;;;;;;;;;;5124890;27;20677;-68
2023/08/10 08:16:29;;;;;;;4.50;1.83;;;;;;;;;;5123358;27;20575;-69
2023/08/10 08:18:55;;;;;;;5.00;2.00;;;;;;;;;;5132393;27;20476;-66
2023/08/10 08:21:22;;;;;;;4.17;1.50;;;;;;;;;;5132826;27;20455;-68
2023/08/10 08:23:50;;;;;;;3.00;1.40;;;;;;;;;;5125578;27;20874;-68
2023/08/10 08:26:17;;;;;;;3.60;1.70;;;;;;;;;;5124264;27;20532;-68
2023/08/10 08:28:43;;;;;;;5.53;1.90;;;;;;;;;;5125271;27;20475;-68
2023/08/10 08:31:10;;;;;;;5.37;1.80;;;;;;;;;;5130652;27;20970;-68
2023/08/10 08:33:38;;;;;;;3.30;1.90;;;;;;;;;;5133874;27;20488;-68
2023/08/10 08:36:05;;;;;;;3.83;1.60;;;;;;;;;;5140050;27;20502;-67
2023/08/10 08:38:32;;;;;;;2.33;1.70;;;;;;;;;;5131085;27;20971;-67
2023/08/10 08:40:59;;;;;;;2.00;1.40;;;;;;;;;;5137452;27;20461;-67
2023/08/10 08:43:25;;;;;;;5.00;1.50;;;;;;;;;;5136102;27;20481;-68
2023/08/10 08:45:52;;;;;;;2.23;1.40;;;;;;;;;;5137586;27;20471;-68
2023/08/10 08:48:19;;;;;;;3.93;1.47;;;;;;;;;;5130057;27;20522;-67
2023/08/10 08:50:48;;;;;;;7.90;1.77;;;;;;;;;;5123859;27;20500;-67
2023/08/10 08:53:15;;;;;;;3.07;1.20;;;;;;;;;;5132024;27;20518;-68
2023/08/10 08:55:42;;;;;;;4.50;1.50;;;;;;;;;;5138642;27;20463;-68
2023/08/10 08:58:08;;;;;;;4.30;1.50;;;;;;;;;;5137661;27;20481;-69
2023/08/10 09:00:35;;;;;;;7.80;2.30;;;;;;;;;;5129433;27;20462;-68
2023/08/10 09:03:02;;;;;;;5.10;1.50;;;;;;;;;;5129237;27;20453;-67
2023/08/10 09:05:29;;;;;;;3.33;1.57;;;;;;;;;;5138681;27;20461;-68
2023/08/10 09:07:57;;;;;;;2.40;1.40;;;;;;;;;;5137422;27;20449;-68
2023/08/10 09:10:23;;;;;;;4.53;1.70;;;;;;;;;;5123736;27;20447;-68
2023/08/10 09:12:50;;;;;;;3.60;1.80;;;;;;;;;;5128000;27;20457;-68
2023/08/10 09:15:17;;;;;;;6.40;1.70;;;;;;;;;;5139119;27;20460;-66
2023/08/10 09:17:44;;;;;;;2.40;1.30;;;;;;;;;;5135344;27;20485;-69
2023/08/10 09:20:17;;;;;;;3.10;1.60;;;;;;;;;;5129428;27;21103;-68
2023/08/10 09:22:44;;;;;;;2.50;1.37;;;;;;;;;;5139465;27;20461;-68
2023/08/10 09:25:12;;;;;;;2.87;1.67;;;;;;;;;;5134107;27;20457;-69
2023/08/10 09:27:38;;;;;;;3.10;1.60;;;;;;;;;;5142799;27;20477;-67
2023/08/10 09:30:06;;;;;;;4.30;1.60;;;;;;;;;;5133706;27;20973;-68
2023/08/10 09:32:32;;;;;;;2.20;1.63;;;;;;;;;;5131227;27;20465;-70
2023/08/10 09:34:59;;;;;;;3.73;1.53;;;;;;;;;;5125635;27;20483;-68
2023/08/10 09:37:26;;;;;;;3.13;1.70;;;;;;;;;;5124588;27;20473;-70
2023/08/10 09:39:54;;;;;;;4.70;1.60;;;;;;;;;;5132899;27;20513;-70
2023/08/10 09:42:22;;;;;;;2.80;1.33;;;;;;;;;;5124961;27;20450;-70
2023/08/10 09:44:50;;;;;;;5.70;1.70;;;;;;;;;;5125257;27;20735;-70
2023/08/10 09:47:16;;;;;;;3.83;1.53;;;;;;;;;;5129267;27;20445;-68
2023/08/10 09:49:52;;;;;;;4.80;1.63;;;;;;;;;;5130228;27;20492;-70
2023/08/10 09:52:19;;;;;;;2.43;1.50;;;;;;;;;;5126017;27;20461;-68
2023/08/10 09:54:45;;;;;;;4.93;1.60;;;;;;;;;;5126449;27;20469;-69
2023/08/10 09:57:12;;;;;;;3.47;1.63;;;;;;;;;;5130351;27;20506;-70
2023/08/10 09:59:40;;;;;;;4.30;1.60;;;;;;;;;;5129822;27;20817;-70
2023/08/10 10:02:09;;;;;;;3.80;1.87;;;;;;;;;;5122922;27;20513;-70
2023/08/10 10:04:36;;;;;;;4.63;2.03;;;;;;;;;;5132311;27;20453;-68
2023/08/10 10:07:03;;;;;;;1.90;1.23;;;;;;;;;;5129097;27;20529;-71
2023/08/10 10:09:30;;;;;;;3.13;1.73;;;;;;;;;;5127023;27;20442;-70
2023/08/10 10:11:57;;;;;;;3.03;1.30;;;;;;;;;;5133760;27;20545;-70
2023/08/10 10:14:23;;;;;;;4.67;1.80;;;;;;;;;;5131241;27;20509;-69
2023/08/10 10:16:52;;;;;;;2.37;1.40;;;;;;;;;;5134472;27;20520;-70
2023/08/10 10:19:18;;;;;;;3.10;1.60;;;;;;;;;;5137976;27;20483;-68
2023/08/10 10:21:46;;;;;;;5.17;1.33;;;;;;;;;;5132583;27;20469;-69
2023/08/10 10:24:12;;;;;;;4.07;1.83;;;;;;;;;;5138882;27;20456;-69
2023/08/10 10:26:39;;;;;;;2.90;1.47;;;;;;;;;;5128579;27;20553;-70
2023/08/10 10:29:12;;;;;;;3.00;1.50;;;;;;;;;;5133637;27;20477;-69
2023/08/10 10:31:38;;;;;;;3.40;1.50;;;;;;;;;;5124531;27;20443;-69
2023/08/10 10:34:06;;;;;;;3.50;1.60;;;;;;;;;;5125152;27;20810;-68
2023/08/10 10:36:32;;;;;;;4.40;2.10;;;;;;;;;;5131201;27;20525;-69
2023/08/10 10:39:03;;;;;;;4.40;1.60;;;;;;;;;;5127292;27;20449;-69
2023/08/10 10:41:31;;;;;;;3.40;1.30;;;;;;;;;;5122893;27;20966;-69
2023/08/10 10:43:58;;;;;;;2.70;1.50;;;;;;;;;;5131616;27;20457;-69
2023/08/10 10:46:38;;;;;;;2.80;1.30;;;;;;;;;;5123866;27;20973;-69
2023/08/10 10:49:11;;;;;;;4.53;1.53;;;;;;;;;;5133790;27;21025;-70
2023/08/10 10:51:59;;;;;;;3.97;1.60;;;;;;;;;;5130265;27;20472;-68
2023/08/10 10:54:27;;;;;;;2.67;1.60;;;;;;;;;;5117972;27;20525;-69
2023/08/10 10:56:54;;;;;;;3.93;1.40;;;;;;;;;;5125682;28;20477;-69
2023/08/10 10:59:21;;;;;;;3.47;1.50;;;;;;;;;;5135340;27;20816;-69
2023/08/10 11:01:48;;;;;;;2.97;1.67;;;;;;;;;;5139163;27;20449;-69
2023/08/10 11:04:15;;;;;;;3.80;1.40;;;;;;;;;;5120337;28;20451;-69
2023/08/10 11:06:42;;;;;;;3.23;2.07;;;;;;;;;;5132155;27;20876;-68
2023/08/10 11:09:09;;;;;;;4.93;1.50;;;;;;;;;;5136864;27;20501;-68
2023/08/10 11:11:35;;;;;;;2.93;1.27;;;;;;;;;;5124027;27;20465;-67
2023/08/10 11:14:02;;;;;;;4.43;1.30;;;;;;;;;;5139376;27;20457;-68
2023/08/10 11:16:43;;;;;;;4.00;1.40;;;;;;;;;;5139075;27;20483;-68
2023/08/10 11:19:10;;;;;;;3.23;1.50;;;;;;;;;;5151487;27;20490;-68
2023/08/10 11:21:39;;;;;;;2.57;1.27;;;;;;;;;;5125550;28;20494;-69
2023/08/10 11:24:07;;;;;;;2.83;1.67;;;;;;;;;;5135997;27;20960;-69
2023/08/10 11:26:34;;;;;;;4.03;1.60;;;;;;;;;;5128398;27;20459;-69
2023/08/10 11:29:00;;;;;;;3.37;1.37;;;;;;;;;;5129254;28;20565;-70
2023/08/10 11:31:26;;;;;;;4.07;1.47;;;;;;;;;;5126595;28;20476;-67
2023/08/10 11:33:53;;;;;;;2.70;1.10;;;;;;;;;;5132739;27;20500;-68
2023/08/10 11:36:23;;;;;;;3.20;1.70;;;;;;;;;;5133837;27;20532;-68
2023/08/10 11:38:51;;;;;;;6.20;1.87;;;;;;;;;;5135271;28;20455;-67
2023/08/10 11:41:17;;;;;;;3.20;1.60;;;;;;;;;;5118020;28;21069;-67
2023/08/10 11:43:46;;;;;;;4.57;1.80;;;;;;;;;;5137169;27;20529;-66
2023/08/10 11:46:14;;;;;;;2.83;1.50;;;;;;;;;;5138352;28;20453;-67
2023/08/10 11:48:40;;;;;;;3.87;1.60;;;;;;;;;;5127708;27;20512;-67
2023/08/10 11:51:07;;;;;;;4.93;1.77;;;;;;;;;;5125533;28;20484;-68
2023/08/10 11:53:36;;;;;;;4.80;1.77;;;;;;;;;;5135786;27;20462;-68
2023/08/10 11:56:06;;;;;;;3.10;1.70;;;;;;;;;;5143281;27;20457;-68
2023/08/10 11:58:33;;;;;;;5.47;1.90;;;;;;;;;;5140380;27;20489;-68
2023/08/10 12:01:02;;;;;;;4.00;1.60;;;;;;;;;;5143031;27;20537;-68
2023/08/10 12:03:29;;;;;;;3.93;1.70;;;;;;;;;;5133265;27;20563;-68
2023/08/10 12:05:56;;;;;;;5.57;2.50;;;;;;;;;;5141996;27;20454;-68
2023/08/10 12:08:25;;;;;;;3.33;1.93;;;;;;;;;;5142914;27;20501;-67
2023/08/10 12:10:52;;;;;;;3.00;1.70;;;;;;;;;;5138602;27;20492;-67
2023/08/10 12:13:20;;;;;;;2.93;1.87;;;;;;;;;;5140024;27;20452;-67
2023/08/10 12:15:47;;;;;;;2.90;1.90;;;;;;;;;;5142259;27;20485;-68
2023/08/10 12:18:14;;;;;;;3.07;1.77;;;;;;;;;;5134902;27;20507;-66
2023/08/10 12:20:41;;;;;;;3.13;1.90;;;;;;;;;;5124996;27;20434;-68
2023/08/10 12:23:08;;;;;;;3.60;1.83;;;;;;;;;;5140237;27;20540;-68
2023/08/10 12:25:34;;;;;;;3.30;1.83;;;;;;;;;;5135059;27;20529;-67
2023/08/10 12:28:01;;;;;;;3.20;1.70;;;;;;;;;;5132527;27;20453;-67
2023/08/10 12:30:29;;;;;;;4.40;1.93;;;;;;;;;;5125719;27;20470;-68
2023/08/10 12:32:56;;;;;;;2.60;1.57;;;;;;;;;;5136375;27;20457;-68
2023/08/10 12:35:22;;;;;;;3.40;1.60;;;;;;;;;;5131464;27;20452;-68
2023/08/10 12:37:49;;;;;;;4.20;1.83;;;;;;;;;;5134634;27;20495;-67
2023/08/10 12:40:16;;;;;;;3.50;1.90;;;;;;;;;;5129157;27;20453;-67
2023/08/10 12:42:43;;;;;;;3.37;1.90;;;;;;;;;;5140819;27;20468;-67
2023/08/10 12:45:10;;;;;;;3.10;1.63;;;;;;;;;;5133615;27;20545;-69
2023/08/10 12:47:39;;;;;;;4.10;1.93;;;;;;;;;;5137783;27;20476;-67
2023/08/10 12:50:06;;;;;;;4.07;1.90;;;;;;;;;;5132123;27;20495;-67
2023/08/10 12:52:32;;;;;;;3.80;1.80;;;;;;;;;;5121078;27;20458;-69
2023/08/10 12:54:58;;;;;;;6.20;1.87;;;;;;;;;;5137378;27;20484;-68
2023/08/10 12:57:25;;;;;;;5.30;2.03;;;;;;;;;;5143114;27;20564;-68
2023/08/10 12:59:51;;;;;;;4.63;1.80;;;;;;;;;;5138901;27;21096;-68
2023/08/10 13:02:18;;;;;;;2.80;1.57;;;;;;;;;;5135134;27;20473;-67
2023/08/10 13:04:46;;;;;;;4.40;1.47;;;;;;;;;;5131868;27;20449;-68
2023/08/10 13:07:12;;;;;;;3.13;1.70;;;;;;;;;;5138374;27;20448;-67
2023/08/10 13:09:39;;;;;;;3.97;1.57;;;;;;;;;;5142046;27;20529;-67
2023/08/10 13:12:06;;;;;;;6.50;1.90;;;;;;;;;;5129181;27;20452;-68
2023/08/10 13:14:32;;;;;;;2.60;1.43;;;;;;;;;;5136033;27;20453;-67
2023/08/10 13:16:59;;;;;;;2.80;1.40;;;;;;;;;;5138324;27;20529;-68
2023/08/10 13:19:25;;;;;;;3.50;1.67;;;;;;;;;;5129792;27;20476;-67
2023/08/10 13:21:53;;;;;;;2.90;1.63;;;;;;;;;;5138063;27;20516;-66
2023/08/10 13:24:19;;;;;;;4.90;1.80;;;;;;;;;;5134230;27;20488;-68
2023/08/10 13:26:46;;;;;;;3.73;1.97;;;;;;;;;;5127842;27;20453;-68
2023/08/10 13:29:12;;;;;;;7.40;2.37;;;;;;;;;;5135473;27;20488;-68
2023/08/10 13:31:39;;;;;;;10.00;2.27;;;;;;;;;;5140362;27;20444;-68
2023/08/10 13:34:08;;;;;;;3.60;2.00;;;;;;;;;;5130930;27;20451;-68
2023/08/10 13:36:34;;;;;;;3.20;1.57;;;;;;;;;;5138084;27;20495;-68
2023/08/10 13:39:02;;;;;;;4.30;2.47;;;;;;;;;;5135781;27;20541;-68
2023/08/10 13:41:29;;;;;;;4.47;1.67;;;;;;;;;;5130985;27;20449;-68
2023/08/10 13:43:55;;;;;;;3.33;2.00;;;;;;;;;;5132891;27;20496;-68
2023/08/10 13:46:22;;;;;;;2.53;1.63;;;;;;;;;;5131391;27;21109;-67
2023/08/10 13:48:48;;;;;;;5.07;1.90;;;;;;;;;;5133500;27;20512;-67
2023/08/10 13:51:15;;;;;;;5.23;1.90;;;;;;;;;;5140867;27;20953;-68
2023/08/10 13:53:41;;;;;;;3.23;1.90;;;;;;;;;;5124520;27;20485;-68
2023/08/10 13:56:09;;;;;;;5.10;1.50;;;;;;;;;;5128921;27;20492;-66
2023/08/10 13:58:35;;;;;;;2.03;1.60;;;;;;;;;;5135348;27;21478;-68
2023/08/10 14:01:06;;;;;;;4.43;1.73;;;;;;;;;;5132894;27;20456;-68
2023/08/10 14:03:32;;;;;;;4.40;2.10;;;;;;;;;;5128634;27;20458;-69
2023/08/10 14:05:59;;;;;;;4.40;1.60;;;;;;;;;;5125236;27;20488;-69
2023/08/10 14:08:25;;;;;;;3.53;1.70;;;;;;;;;;5124593;27;20449;-68
2023/08/10 14:10:52;;;;;;;3.47;1.67;;;;;;;;;;5128202;27;20536;-67
2023/08/10 14:13:21;;;;;;;3.37;1.87;;;;;;;;;;5129528;27;20480;-68
2023/08/10 14:15:47;;;;;;;7.70;2.00;;;;;;;;;;5131429;27;20484;-68
2023/08/10 14:18:14;;;;;;;3.97;1.60;;;;;;;;;;5126886;27;20564;-67
2023/08/10 14:20:40;;;;;;;2.77;1.50;;;;;;;;;;5125909;27;20489;-67
2023/08/10 14:23:07;;;;;;;5.10;1.70;;;;;;;;;;5132501;27;20928;-66
2023/08/10 14:25:34;;;;;;;2.40;1.47;;;;;;;;;;5125923;27;20455;-68
2023/08/10 14:28:00;;;;;;;4.40;1.53;;;;;;;;;;5133052;27;20506;-68
2023/08/10 14:30:28;;;;;;;3.20;2.00;;;;;;;;;;5137924;27;20634;-68
2023/08/10 14:32:54;;;;;;;4.20;2.00;;;;;;;;;;5118180;27;20469;-68
2023/08/10 14:35:21;;;;;;;3.83;1.97;;;;;;;;;;5133629;27;20951;-68
2023/08/10 14:37:47;;;;;;;2.43;1.63;;;;;;;;;;5141042;27;20513;-67
2023/08/10 14:40:15;;;;;;;3.80;1.73;;;;;;;;;;5117012;27;20490;-67
2023/08/10 14:42:41;;;;;;;6.23;1.60;;;;;;;;;;5130312;27;20794;-68